createdAt,value
2022-12-09T00:02:23.945Z,28.27
2022-12-09T00:05:27.336Z,34.13
2022-12-09T00:08:29.996Z,35.42
2022-12-09T00:11:33.847Z,33.53
2022-12-09T00:14:36.455Z,36.10
2022-12-09T00:17:39.483Z,39.00
2022-12-09T00:20:42.027Z,31.50
2022-12-09T00:23:45.274Z,34.25
2022-12-09T00:26:47.861Z,35.20
2022-12-09T00:29:50.891Z,36.05
2022-12-09T00:32:53.485Z,27.27
2022-12-09T00:35:56.501Z,32.03
2022-12-09T00:38:59.851Z,35.33
2022-12-09T00:42:02.730Z,34.50
2022-12-09T00:45:05.717Z,35.35
2022-12-09T00:48:09.644Z,43.23
2022-12-09T00:51:15.567Z,39.03
2022-12-09T00:54:18.626Z,42.95
2022-12-09T00:57:21.304Z,41.22
2022-12-09T01:00:24.483Z,40.00
2022-12-09T01:03:27.612Z,36.43
2022-12-09T01:06:31.022Z,39.70
2022-12-09T01:09:35.071Z,38.25
2022-12-09T01:12:39.038Z,35.95
2022-12-09T01:15:42.260Z,38.33
2022-12-09T01:18:45.694Z,33.83
2022-12-09T01:21:48.255Z,34.90
2022-12-09T01:24:51.350Z,37.70
2022-12-09T01:27:54.380Z,32.85
2022-12-09T01:30:57.261Z,35.58
2022-12-09T01:33:59.989Z,35.90
2022-12-09T01:37:03.055Z,30.73
2022-12-09T01:40:09.144Z,30.83
2022-12-09T01:43:19.095Z,30.25
2022-12-09T01:46:21.923Z,35.75
2022-12-09T01:49:39.261Z,29.47
2022-12-09T01:52:42.641Z,36.53
2022-12-09T01:55:46.397Z,35.92
2022-12-09T01:58:50.299Z,31.75
2022-12-09T02:01:58.218Z,32.20
2022-12-09T02:05:01.923Z,38.53
2022-12-09T02:08:17.332Z,33.10
2022-12-09T02:11:20.474Z,31.00
2022-12-09T02:14:35.722Z,38.53
2022-12-09T02:18:01.097Z,32.38
2022-12-09T02:21:09.643Z,34.53
2022-12-09T02:24:19.606Z,35.55
2022-12-09T02:27:45.114Z,32.47
2022-12-09T02:30:50.954Z,36.90
2022-12-09T02:34:07.970Z,36.20
2022-12-09T02:37:18.999Z,34.57
2022-12-09T02:40:29.762Z,36.50
2022-12-09T02:43:36.732Z,35.65
2022-12-09T02:46:41.909Z,35.45
2022-12-09T02:49:48.509Z,32.70
2022-12-09T02:52:54.567Z,34.37
2022-12-09T02:55:58.441Z,37.17
2022-12-09T02:59:02.107Z,34.45
2022-12-09T03:02:19.091Z,40.67
2022-12-09T03:05:47.941Z,36.58
2022-12-09T03:08:53.251Z,29.77
2022-12-09T03:11:59.611Z,33.08
2022-12-09T03:15:04.601Z,34.63
2022-12-09T03:18:10.909Z,34.85
2022-12-09T03:21:15.120Z,34.53
2022-12-09T03:24:21.616Z,32.93
2022-12-09T03:27:35.182Z,36.53
2022-12-09T03:30:41.921Z,31.73
2022-12-09T03:33:47.347Z,33.80
2022-12-09T03:36:52.104Z,35.25
2022-12-09T03:39:55.985Z,33.30
2022-12-09T03:43:00.917Z,35.22
2022-12-09T03:46:03.730Z,35.17
2022-12-09T03:49:06.860Z,38.10
2022-12-09T03:52:44.917Z,39.47
2022-12-09T03:56:11.744Z,39.10
2022-12-09T03:59:15.711Z,40.50
2022-12-09T04:02:19.086Z,38.17
2022-12-09T04:05:22.622Z,39.20
2022-12-09T04:08:26.014Z,40.03
2022-12-09T04:11:29.179Z,37.20
2022-12-09T04:14:31.799Z,43.28
2022-12-09T04:17:34.606Z,44.67
2022-12-09T04:20:37.677Z,51.37
2022-12-09T04:23:43.440Z,38.90
2022-12-09T04:26:46.353Z,47.60
2022-12-09T04:29:49.360Z,44.47
2022-12-09T04:32:51.949Z,42.95
2022-12-09T04:35:55.145Z,47.58
2022-12-09T04:38:58.372Z,47.25
2022-12-09T04:42:02.632Z,50.27
2022-12-09T04:45:06.204Z,50.00
2022-12-09T04:48:09.370Z,44.72
2022-12-09T04:51:14.310Z,43.17
2022-12-09T04:54:17.828Z,40.75
2022-12-09T04:57:20.796Z,43.67
2022-12-09T05:00:24.206Z,43.40
2022-12-09T05:03:26.976Z,55.63
2022-12-09T05:06:30.413Z,55.53
2022-12-09T05:09:34.464Z,49.33
2022-12-09T05:12:37.736Z,50.80
2022-12-09T05:15:40.372Z,49.45
2022-12-09T05:18:44.782Z,53.17
2022-12-09T05:21:47.636Z,51.22
2022-12-09T05:24:51.386Z,56.47
2022-12-09T05:27:54.099Z,58.30
2022-12-09T05:31:02.274Z,56.00
2022-12-09T05:34:05.362Z,53.53
2022-12-09T05:37:08.918Z,60.00
2022-12-09T05:40:12.776Z,62.47
2022-12-09T05:43:16.141Z,52.07
2022-12-09T05:46:19.283Z,51.47
2022-12-09T05:49:22.348Z,60.12
2022-12-09T05:52:25.704Z,54.55
2022-12-09T05:55:28.942Z,50.88
2022-12-09T05:58:32.039Z,50.80
2022-12-09T06:01:35.392Z,56.92
2022-12-09T06:04:38.508Z,57.42
2022-12-09T06:07:41.708Z,47.45
2022-12-09T06:10:45.014Z,54.55
2022-12-09T06:13:48.424Z,49.20
2022-12-09T06:16:51.387Z,49.60
2022-12-09T06:19:54.429Z,54.20
2022-12-09T06:22:57.593Z,48.87
2022-12-09T06:26:00.281Z,48.17
2022-12-09T06:29:03.606Z,58.97
2022-12-09T06:32:06.410Z,52.03
2022-12-09T06:35:10.027Z,56.85
2022-12-09T06:38:13.011Z,51.22
2022-12-09T06:41:16.466Z,49.83
2022-12-09T06:44:23.437Z,52.97
2022-12-09T06:47:27.454Z,45.35
2022-12-09T06:50:31.413Z,45.92
2022-12-09T06:53:34.905Z,52.88
2022-12-09T06:56:37.453Z,48.00
2022-12-09T06:59:40.440Z,46.63
2022-12-09T07:02:43.595Z,49.08
2022-12-09T07:05:47.237Z,51.40
2022-12-09T07:08:50.142Z,71.35
2022-12-09T07:11:53.500Z,82.40
2022-12-09T07:14:56.413Z,58.70
2022-12-09T07:17:59.467Z,51.28
2022-12-09T07:21:14.517Z,54.05
2022-12-09T07:24:19.357Z,55.67
2022-12-09T07:27:22.314Z,45.65
2022-12-09T07:30:25.599Z,48.73
2022-12-09T07:33:28.952Z,48.38
2022-12-09T07:36:35.051Z,50.17
2022-12-09T07:39:38.223Z,50.92
2022-12-09T07:42:41.166Z,54.47
2022-12-09T07:45:44.945Z,45.73
2022-12-09T07:48:49.322Z,40.80
2022-12-09T07:51:52.773Z,45.85
2022-12-09T07:54:59.365Z,52.00
2022-12-09T07:58:02.312Z,47.90
2022-12-09T08:01:09.513Z,48.57
2022-12-09T08:04:13.286Z,46.20
2022-12-09T08:07:16.513Z,39.55
2022-12-09T08:10:19.831Z,43.50
2022-12-09T08:13:23.002Z,53.42
2022-12-09T08:16:26.643Z,39.27
2022-12-09T08:19:29.699Z,46.37
2022-12-09T08:22:34.957Z,47.10
2022-12-09T08:25:38.104Z,44.55
2022-12-09T08:28:41.197Z,42.08
2022-12-09T08:31:44.369Z,40.00
2022-12-09T08:34:48.182Z,42.15
2022-12-09T08:37:50.883Z,45.03
2022-12-09T08:40:54.140Z,42.50
2022-12-09T08:43:57.905Z,39.08
2022-12-09T08:47:01.326Z,36.93
2022-12-09T08:50:05.278Z,37.33
2022-12-09T08:53:08.639Z,44.00
2022-12-09T08:56:13.315Z,44.90
2022-12-09T08:59:17.694Z,52.65
2022-12-09T09:02:21.055Z,43.00
2022-12-09T09:05:24.095Z,35.20
2022-12-09T09:08:27.465Z,41.37
2022-12-09T09:11:31.667Z,48.08
2022-12-09T09:14:34.894Z,36.25
2022-12-09T09:17:38.493Z,37.00
2022-12-09T09:20:48.469Z,33.38
2022-12-09T09:23:51.802Z,34.33
2022-12-09T09:26:54.913Z,37.90
2022-12-09T09:29:58.296Z,49.35
2022-12-09T09:33:01.057Z,60.63
2022-12-09T09:36:10.181Z,44.05
2022-12-09T09:39:13.907Z,32.40
2022-12-09T09:42:20.456Z,37.45
2022-12-09T09:45:24.790Z,36.28
2022-12-09T09:48:33.246Z,42.43
2022-12-09T09:51:36.577Z,35.90
2022-12-09T09:54:40.214Z,45.40
2022-12-09T09:58:07.954Z,51.88
2022-12-09T10:01:16.673Z,41.88
2022-12-09T10:04:36.519Z,40.57
2022-12-09T10:07:44.859Z,117.95
2022-12-09T10:11:18.991Z,54.92
2022-12-09T10:14:37.513Z,78.53
2022-12-09T10:17:56.347Z,69.62
2022-12-09T10:20:59.434Z,42.87
2022-12-09T10:24:26.907Z,74.37
2022-12-09T10:27:35.772Z,40.47
2022-12-09T10:30:44.358Z,139.40
2022-12-09T10:33:49.049Z,73.95
2022-12-09T10:36:52.577Z,29.97
2022-12-09T10:40:18.637Z,26.12
2022-12-09T10:43:35.230Z,37.78
2022-12-09T10:46:38.125Z,26.52
2022-12-09T10:49:42.992Z,24.80
2022-12-09T10:52:46.231Z,22.13
2022-12-09T10:55:53.939Z,21.05
2022-12-09T10:59:18.001Z,23.50
2022-12-09T11:02:22.214Z,38.45
2022-12-09T11:05:28.052Z,101.07
2022-12-09T11:08:32.177Z,98.70
2022-12-09T11:11:49.778Z,144.48
2022-12-09T11:14:54.981Z,95.68
2022-12-09T11:18:05.115Z,82.35
2022-12-09T11:21:28.843Z,50.30
2022-12-09T11:24:33.152Z,148.17
2022-12-09T11:27:36.174Z,160.98
2022-12-09T11:31:12.120Z,189.40
2022-12-09T11:34:23.346Z,173.77
2022-12-09T11:37:26.834Z,175.82
2022-12-09T11:40:30.432Z,87.63
2022-12-09T11:43:40.550Z,81.20
2022-12-09T11:46:43.487Z,32.60
2022-12-09T11:49:52.143Z,56.05
2022-12-09T11:53:13.393Z,96.30
2022-12-09T11:56:23.116Z,34.07
2022-12-09T11:59:38.347Z,31.75
2022-12-09T12:02:46.456Z,42.55
2022-12-09T12:05:52.118Z,69.47
2022-12-09T12:09:01.213Z,92.22
2022-12-09T12:12:39.987Z,95.00
2022-12-09T12:15:45.217Z,162.52
2022-12-09T12:18:49.052Z,220.73
2022-12-09T12:22:10.157Z,199.93
2022-12-09T12:25:44.225Z,105.00
2022-12-09T12:28:56.615Z,175.80
2022-12-09T12:32:04.114Z,104.38
2022-12-09T12:35:25.054Z,117.93
2022-12-09T12:38:40.050Z,133.73
2022-12-09T12:42:01.578Z,157.43
2022-12-09T12:45:43.361Z,205.97
2022-12-09T12:49:04.942Z,173.95
2022-12-09T12:52:47.472Z,166.93
2022-12-09T12:56:12.007Z,258.17
2022-12-09T12:59:39.819Z,262.98
2022-12-09T13:02:55.453Z,164.27
2022-12-09T13:06:02.182Z,279.20
2022-12-09T13:09:34.968Z,371.20
2022-12-09T13:12:58.210Z,336.70
2022-12-09T13:16:04.413Z,162.68
2022-12-09T13:19:12.889Z,295.17
2022-12-09T13:22:25.566Z,267.80
2022-12-09T13:25:40.374Z,342.33
2022-12-09T13:28:52.680Z,278.52
2022-12-09T13:32:17.445Z,377.98
2022-12-09T13:35:25.161Z,127.20
2022-12-09T13:38:40.621Z,331.33
2022-12-09T13:42:03.285Z,266.88
2022-12-09T13:45:14.188Z,298.85
2022-12-09T13:48:17.523Z,340.55
2022-12-09T13:51:22.771Z,217.27
2022-12-09T13:54:26.883Z,378.17
2022-12-09T13:57:44.970Z,421.92
2022-12-09T14:01:05.543Z,293.08
2022-12-09T14:04:08.321Z,210.40
2022-12-09T14:07:13.638Z,404.07
2022-12-09T14:10:40.225Z,282.08
2022-12-09T14:13:42.753Z,366.73
2022-12-09T14:16:45.690Z,301.15
2022-12-09T14:19:48.384Z,282.50
2022-12-09T14:23:12.562Z,194.93
2022-12-09T14:26:34.142Z,353.60
2022-12-09T14:30:24.769Z,292.55
2022-12-09T14:33:35.846Z,301.55
2022-12-09T14:36:38.755Z,109.00
2022-12-09T14:39:51.737Z,239.63
2022-12-09T14:43:07.680Z,288.85
2022-12-09T14:46:30.297Z,209.80
2022-12-09T14:49:36.600Z,310.00
2022-12-09T14:53:00.505Z,276.55
2022-12-09T14:56:04.721Z,134.27
2022-12-09T14:59:18.701Z,265.65
2022-12-09T15:02:29.804Z,267.58
2022-12-09T15:05:32.525Z,141.15
2022-12-09T15:08:37.662Z,284.62
2022-12-09T15:11:40.239Z,152.73
2022-12-09T15:14:44.388Z,332.85
2022-12-09T15:17:55.914Z,339.80
2022-12-09T15:21:00.101Z,365.45
2022-12-09T15:24:03.362Z,249.35
2022-12-09T15:27:06.508Z,247.87
2022-12-09T15:30:37.611Z,249.80
2022-12-09T15:33:43.215Z,200.90
2022-12-09T15:36:55.186Z,175.00
2022-12-09T15:40:08.549Z,227.55
2022-12-09T15:43:12.126Z,105.70
2022-12-09T15:46:16.592Z,135.25
2022-12-09T15:49:28.499Z,138.37
2022-12-09T15:52:35.312Z,188.37
2022-12-09T15:55:42.438Z,264.88
2022-12-09T15:58:49.689Z,199.13
2022-12-09T16:01:55.005Z,222.52
2022-12-09T16:05:02.250Z,147.13
2022-12-09T16:08:04.890Z,281.70
2022-12-09T16:11:07.954Z,187.88
2022-12-09T16:14:12.826Z,104.07
2022-12-09T16:17:24.774Z,157.15
2022-12-09T16:20:42.537Z,113.75
2022-12-09T16:23:50.386Z,94.72
2022-12-09T16:26:57.268Z,329.92
2022-12-09T16:30:15.965Z,54.83
2022-12-09T16:33:20.646Z,99.97
2022-12-09T16:36:31.256Z,214.90
2022-12-09T16:39:34.994Z,89.35
2022-12-09T16:42:41.066Z,118.32
2022-12-09T16:45:48.042Z,146.67
2022-12-09T16:48:51.772Z,93.85
2022-12-09T16:51:54.531Z,74.93
2022-12-09T16:54:59.624Z,168.10
2022-12-09T16:58:03.458Z,101.62
2022-12-09T17:01:06.828Z,130.77
2022-12-09T17:04:25.650Z,55.60
2022-12-09T17:07:28.704Z,90.20
2022-12-09T17:10:31.724Z,68.70
2022-12-09T17:13:35.027Z,28.58
2022-12-09T17:16:37.832Z,18.90
2022-12-09T17:19:42.244Z,21.67
2022-12-09T17:22:45.169Z,20.85
2022-12-09T17:25:56.313Z,58.40
2022-12-09T17:29:01.770Z,18.75
2022-12-09T17:32:05.663Z,30.60
2022-12-09T17:35:12.854Z,47.92
2022-12-09T17:38:16.069Z,54.15
2022-12-09T17:41:23.450Z,49.72
2022-12-09T17:44:26.304Z,45.83
2022-12-09T17:47:29.216Z,47.53
2022-12-09T17:50:33.716Z,25.48
2022-12-09T17:53:37.425Z,29.30
2022-12-09T17:56:40.513Z,45.55
2022-12-09T17:59:43.283Z,90.68
2022-12-09T18:02:46.272Z,66.87
2022-12-09T18:05:49.513Z,52.92
2022-12-09T18:08:53.408Z,22.02
2022-12-09T18:11:56.784Z,22.05
2022-12-09T18:14:59.367Z,27.02
2022-12-09T18:18:02.208Z,13.70
2022-12-09T18:21:10.651Z,25.90
2022-12-09T18:24:16.836Z,79.60
2022-12-09T18:27:19.695Z,59.47
2022-12-09T18:30:22.655Z,21.87
2022-12-09T18:33:25.505Z,35.27
2022-12-09T18:36:28.869Z,38.15
2022-12-09T18:39:31.426Z,88.93
2022-12-09T18:42:34.197Z,22.83
2022-12-09T18:45:36.897Z,93.47
2022-12-09T18:48:40.511Z,25.60
2022-12-09T18:51:44.818Z,12.05
2022-12-09T18:54:47.807Z,10.82
2022-12-09T18:57:53.404Z,19.27
2022-12-09T19:00:56.849Z,10.25
2022-12-09T19:04:01.657Z,14.80
2022-12-09T19:07:04.731Z,10.77
2022-12-09T19:10:08.720Z,13.07
2022-12-09T19:13:12.217Z,11.32
2022-12-09T19:16:15.221Z,9.38
2022-12-09T19:19:21.409Z,8.50
2022-12-09T19:22:24.021Z,10.23
2022-12-09T19:25:27.041Z,8.77
2022-12-09T19:28:29.933Z,10.48
2022-12-09T19:31:44.801Z,9.48
2022-12-09T19:34:48.089Z,13.00
2022-12-09T19:37:54.291Z,10.00
2022-12-09T19:41:02.857Z,7.70
2022-12-09T19:44:06.100Z,6.75
2022-12-09T19:47:08.888Z,7.45
2022-12-09T19:50:12.544Z,7.30
2022-12-09T19:53:15.405Z,7.60
2022-12-09T19:56:19.669Z,8.00
2022-12-09T19:59:23.172Z,9.52
2022-12-09T20:02:26.407Z,6.97
2022-12-09T20:05:29.680Z,12.20
2022-12-09T20:08:32.522Z,8.57
2022-12-09T20:11:36.426Z,7.87
2022-12-09T20:14:39.560Z,6.95
2022-12-09T20:17:43.290Z,6.37
2022-12-09T20:20:49.043Z,7.40
2022-12-09T20:23:54.168Z,10.45
2022-12-09T20:26:56.997Z,6.65
2022-12-09T20:30:00.006Z,12.00
2022-12-09T20:33:02.694Z,7.00
2022-12-09T20:36:11.945Z,11.30
2022-12-09T20:39:19.758Z,7.35
2022-12-09T20:42:23.090Z,9.10
2022-12-09T20:45:25.857Z,8.77
2022-12-09T20:48:29.786Z,19.30
2022-12-09T20:51:36.027Z,7.97
2022-12-09T20:54:38.884Z,6.18
2022-12-09T20:57:41.396Z,6.68
2022-12-09T21:00:44.635Z,6.65
2022-12-09T21:03:48.272Z,9.77
2022-12-09T21:06:51.682Z,7.03
2022-12-09T21:09:54.482Z,14.87
2022-12-09T21:12:57.597Z,9.13
2022-12-09T21:16:12.438Z,11.65
2022-12-09T21:19:20.037Z,6.57
2022-12-09T21:22:22.793Z,6.83
2022-12-09T21:25:25.959Z,9.43
2022-12-09T21:28:28.532Z,8.13
2022-12-09T21:31:34.454Z,8.77
2022-12-09T21:34:37.332Z,9.27
2022-12-09T21:37:40.587Z,11.87
2022-12-09T21:40:43.444Z,7.80
2022-12-09T21:43:46.786Z,8.05
2022-12-09T21:46:49.393Z,11.38
2022-12-09T21:49:52.434Z,34.50
2022-12-09T21:52:55.244Z,35.80
2022-12-09T21:56:04.998Z,35.40
2022-12-09T21:59:07.950Z,28.33
2022-12-09T22:02:11.396Z,19.90
2022-12-09T22:05:14.439Z,20.10
2022-12-09T22:08:17.376Z,15.70
2022-12-09T22:11:23.549Z,20.60
2022-12-09T22:14:26.538Z,19.85
2022-12-09T22:17:29.487Z,18.65
2022-12-09T22:21:07.951Z,19.17
2022-12-09T22:23:57.171Z,21.03
2022-12-09T22:26:59.798Z,37.13
2022-12-09T22:30:06.424Z,34.40
2022-12-09T22:33:09.615Z,28.10
2022-12-09T22:36:13.440Z,56.97
2022-12-09T22:39:21.865Z,79.30
2022-12-09T22:42:24.870Z,97.03
2022-12-09T22:45:27.458Z,80.47
2022-12-09T22:48:30.424Z,73.82
2022-12-09T22:51:35.811Z,21.52
2022-12-09T22:54:38.592Z,24.60
2022-12-09T22:57:41.166Z,48.42
2022-12-09T23:00:44.243Z,65.35
2022-12-09T23:03:47.597Z,28.98
2022-12-09T23:06:50.752Z,51.60
2022-12-09T23:09:53.333Z,36.13
2022-12-09T23:12:56.221Z,114.65
2022-12-09T23:16:03.368Z,67.03
2022-12-09T23:19:06.392Z,34.35
2022-12-09T23:22:08.995Z,63.33
2022-12-09T23:25:12.027Z,98.60
2022-12-09T23:28:14.650Z,111.70
2022-12-09T23:31:19.466Z,51.58
2022-12-09T23:34:22.787Z,55.22
2022-12-09T23:37:25.793Z,36.28
2022-12-09T23:40:28.361Z,26.03
2022-12-09T23:43:32.276Z,28.15
2022-12-09T23:46:34.766Z,27.75
2022-12-09T23:49:37.789Z,26.65
2022-12-09T23:52:40.636Z,35.08
2022-12-09T23:55:43.441Z,22.67
2022-12-09T23:58:46.701Z,19.95
